ePrivacy and GPDR Cookie Consent by Cookie Consent
EmailTwitter


Surface observations / United Kingdom / EGTE (03839)

Regions: Quebec | Canada | USA | Europe | France | UK | Elsewhere
Station
Display
Info & Location for EGTE (03839) | Help decoding METAR

Weather Conditions observed on 2021/06/20 at 15:50 UTC at EXETER AIRPORT, UK (EGTE)

Sky conditions: variable clouds.

Obstruction(s) to Vision: light rain showers.

Temperature: 18.0 Celsius.

Dewpoint: 15.0 Celsius.

Relative Humidity: 83%

Winds: North at 17 km/h or 9 knots.

Mean Sea level Pressure: 100.70 kilopascals.

Horizontal visibility: 6.21 statute miles or 9.94 kilometers.

Coded METAR:

EGTE 201550Z 01009KT 9999 -SHRA FEW010 SCT020 18/15 Q1007=